Time;durP1;ratioP1;P1;durP2;ratioP2;P2;SDS_P1;SDS_P2;PMS_P1;PMS_P2;Temp;Humidity;BMP_temperature;BMP_pressure;BME280_temperature;BME280_humidity;BME280_pressure;Samples;Min_cycle;Max_cycle;Signal;HPM_P1;HPM_P2
2023/10/26 00:00:19;;;;;;;;;;;;;;;21.06;55.92;96073.27;611265;232;68843;-66
2023/10/26 00:02:47;;;;;;;;;;;;;;;21.06;55.91;96066.08;611268;232;62324;-66
2023/10/26 00:05:14;;;;;;;;;;;;;;;21.08;55.91;96048.95;611320;232;67083;-68
2023/10/26 00:07:42;;;;;;;;;;;;;;;21.06;55.92;96052.72;611285;232;66538;-67
2023/10/26 00:10:10;;;;;;;;;;;;;;;21.06;55.91;96057.25;611314;232;62467;-68
2023/10/26 00:12:37;;;;;;;;;;;;;;;21.06;55.92;96043.89;611332;232;66426;-68
2023/10/26 00:15:05;;;;;;;;;;;;;;;21.06;55.92;96052.72;611281;232;66425;-67
2023/10/26 00:17:33;;;;;;;;;;;;;;;21.06;55.93;96062.59;611358;232;64748;-67
2023/10/26 00:20:00;;;;;;;;;;;;;;;21.05;55.94;96061.80;611305;232;69456;-67
2023/10/26 00:22:29;;;;;;;;;;;;;;;21.05;55.93;96045.77;611303;232;69548;-68
2023/10/26 00:24:57;;;;;;;;;;;;;;;21.05;55.94;96045.77;611287;232;62454;-68
2023/10/26 00:27:24;;;;;;;;;;;;;;;21.05;55.93;96056.46;611304;232;66603;-68
2023/10/26 00:29:51;;;;;;;;;;;;;;;21.05;55.93;96048.45;611326;232;66423;-68
2023/10/26 00:32:19;;;;;;;;;;;;;;;21.05;55.93;96048.45;611292;232;64893;-68
2023/10/26 00:34:47;;;;;;;;;;;;;;;21.05;55.95;96055.67;611301;232;68795;-69
2023/10/26 00:37:14;;;;;;;;;;;;;;;21.04;55.93;96054.89;611304;232;66721;-68
2023/10/26 00:39:42;;;;;;;;;;;;;;;21.05;55.94;96044.98;611294;232;64834;-69
2023/10/26 00:42:11;;;;;;;;;;;;;;;21.06;55.94;96044.71;611402;232;66081;-68
2023/10/26 00:44:39;;;;;;;;;;;;;;;21.05;55.94;96044.98;611334;232;68458;-67
2023/10/26 00:47:07;;;;;;;;;;;;;;;21.05;55.94;96039.64;611311;232;62318;-66
2023/10/26 00:49:34;;;;;;;;;;;;;;;21.05;55.93;96045.77;611299;232;69124;-66
2023/10/26 00:52:03;;;;;;;;;;;;;;;21.05;55.95;96045.77;611316;232;68545;-66
2023/10/26 00:54:32;;;;;;;;;;;;;;;21.05;55.94;96043.11;611366;232;62678;-66
2023/10/26 00:57:00;;;;;;;;;;;;;;;21.05;55.94;96043.11;611358;232;68458;-66
2023/10/26 00:59:27;;;;;;;;;;;;;;;21.04;55.94;96033.52;611288;232;65413;-66
2023/10/26 01:01:56;;;;;;;;;;;;;;;21.05;55.95;96045.77;611249;232;65196;-66
2023/10/26 01:04:23;;;;;;;;;;;;;;;21.05;55.94;96051.13;611302;232;68457;-66
2023/10/26 01:06:51;;;;;;;;;;;;;;;21.06;55.94;96030.53;611318;232;66091;-66
2023/10/26 01:09:19;;;;;;;;;;;;;;;21.04;55.93;96036.19;611368;232;62464;-66
2023/10/26 01:11:47;;;;;;;;;;;;;;;21.04;55.92;96030.06;611257;232;68822;-67
2023/10/26 01:14:16;;;;;;;;;;;;;;;21.05;55.93;96040.44;611278;232;67073;-67
2023/10/26 01:16:44;;;;;;;;;;;;;;;21.04;55.92;96035.41;611302;231;64573;-68
2023/10/26 01:19:12;;;;;;;;;;;;;;;21.04;55.94;96030.84;611261;232;69522;-68
2023/10/26 01:21:50;;;;;;;;;;;;;;;21.04;55.93;96032.73;611370;232;66532;-68
2023/10/26 01:24:18;;;;;;;;;;;;;;;21.03;55.92;96026.60;610978;232;63123;-68
2023/10/26 01:26:46;;;;;;;;;;;;;;;21.04;55.94;96030.84;611285;232;66261;-68
2023/10/26 01:29:14;;;;;;;;;;;;;;;21.04;55.93;96025.50;611304;232;68873;-68
2023/10/26 01:31:42;;;;;;;;;;;;;;;21.04;55.94;96035.41;611320;232;62354;-68
2023/10/26 01:34:09;;;;;;;;;;;;;;;21.03;55.96;96021.26;611280;232;68638;-68
2023/10/26 01:36:37;;;;;;;;;;;;;;;21.03;55.96;96010.58;611351;232;68549;-68
2023/10/26 01:39:04;;;;;;;;;;;;;;;21.04;56.01;96025.50;611261;232;62451;-68
2023/10/26 01:41:33;;;;;;;;;;;;;;;21.03;56.09;96015.91;611274;232;68665;-67
2023/10/26 01:44:01;;;;;;;;;;;;;;;21.03;56.26;96010.58;611305;232;68962;-68
2023/10/26 01:46:29;;;;;;;;;;;;;;;21.03;56.16;96015.91;611292;232;65184;-68
2023/10/26 01:48:57;;;;;;;;;;;;;;;21.04;56.11;96024.72;611331;232;68765;-68
2023/10/26 01:51:24;;;;;;;;;;;;;;;21.03;56.19;96026.60;611250;232;66154;-68
2023/10/26 01:53:52;;;;;;;;;;;;;;;21.03;56.29;96025.78;611274;232;65295;-67
2023/10/26 01:56:19;;;;;;;;;;;;;;;21.03;56.45;96023.93;611316;232;68971;-68
2023/10/26 01:58:48;;;;;;;;;;;;;;;21.03;56.11;96015.10;611290;232;69251;-67
2023/10/26 02:01:15;;;;;;;;;;;;;;;21.03;56.01;96009.76;611297;232;62557;-67
2023/10/26 02:03:43;;;;;;;;;;;;;;;21.02;56.03;96008.19;611253;232;68694;-67
2023/10/26 02:06:11;;;;;;;;;;;;;;;21.03;56.08;96017.77;611254;232;66350;-67
2023/10/26 02:08:38;;;;;;;;;;;;;;;21.04;56.10;96016.70;611305;232;62334;-67
2023/10/26 02:11:06;;;;;;;;;;;;;;;21.02;55.98;96014.31;611273;232;69519;-67
2023/10/26 02:13:38;;;;;;;;;;;;;;;21.02;55.96;96029.55;611330;232;66420;-67
2023/10/26 02:16:07;;;;;;;;;;;;;;;21.03;55.92;96033.80;611289;232;62727;-67
2023/10/26 02:18:35;;;;;;;;;;;;;;;21.02;55.92;96026.88;611270;232;68819;-68
2023/10/26 02:21:02;;;;;;;;;;;;;;;21.02;55.89;96026.88;611297;232;66106;-68
2023/10/26 02:23:30;;;;;;;;;;;;;;;21.02;55.88;96027.67;611312;232;64567;-68
2023/10/26 02:25:57;;;;;;;;;;;;;;;21.02;55.96;96025.00;611346;232;68950;-67
2023/10/26 02:28:25;;;;;;;;;;;;;;;21.01;55.99;96012.74;611294;232;66931;-68
2023/10/26 02:30:53;;;;;;;;;;;;;;;21.02;55.90;96019.66;611260;232;64670;-68
2023/10/26 02:33:20;;;;;;;;;;;;;;;21.01;55.87;96020.75;611276;232;68838;-68
2023/10/26 02:35:48;;;;;;;;;;;;;;;21.01;55.83;96023.42;611262;232;68353;-68
2023/10/26 02:38:15;;;;;;;;;;;;;;;21.01;56.03;96020.75;611309;232;64485;-68
2023/10/26 02:40:43;;;;;;;;;;;;;;;21.02;56.16;96024.21;611336;232;66200;-68
2023/10/26 02:43:10;;;;;;;;;;;;;;;21.02;56.49;96026.88;611290;232;68892;-68
2023/10/26 02:45:39;;;;;;;;;;;;;;;21.01;56.67;96028.77;611276;232;64885;-66
2023/10/26 02:48:06;;;;;;;;;;;;;;;21.02;56.27;96035.69;611289;232;69172;-66
2023/10/26 02:50:36;;;;;;;;;;;;;;;21.00;56.33;96021.03;611266;232;68673;-66
2023/10/26 02:53:03;;;;;;;;;;;;;;;21.01;56.50;96031.44;611303;231;65552;-66
2023/10/26 02:55:32;;;;;;;;;;;;;;;21.01;56.64;96034.11;611277;232;69702;-66
2023/10/26 02:57:59;;;;;;;;;;;;;;;20.99;56.22;96028.27;611249;232;69496;-66
2023/10/26 03:00:27;;;;;;;;;;;;;;;21.00;56.03;96032.50;611256;232;64568;-66
2023/10/26 03:02:55;;;;;;;;;;;;;;;21.00;56.02;96035.18;611258;232;66049;-66
2023/10/26 03:05:23;;;;;;;;;;;;;;;20.99;56.00;96030.94;611322;232;68678;-66
2023/10/26 03:07:52;;;;;;;;;;;;;;;21.00;56.00;96037.84;611307;232;64466;-66
2023/10/26 03:10:20;;;;;;;;;;;;;;;21.00;56.31;96031.72;611288;232;68825;-66
2023/10/26 03:12:48;;;;;;;;;;;;;;;21.00;56.73;96029.84;611264;232;66357;-66
2023/10/26 03:15:16;;;;;;;;;;;;;;;20.99;56.67;96019.47;611288;232;64711;-66
2023/10/26 03:17:44;;;;;;;;;;;;;;;20.99;56.71;96022.92;611280;232;69003;-66
2023/10/26 03:20:12;;;;;;;;;;;;;;;20.99;57.09;96030.15;611285;232;68457;-66
2023/10/26 03:22:39;;;;;;;;;;;;;;;21.00;57.33;96031.72;611259;232;64751;-66
2023/10/26 03:25:07;;;;;;;;;;;;;;;20.98;58.45;96026.69;611251;232;66572;-66
2023/10/26 03:27:35;;;;;;;;;;;;;;;20.99;57.37;96030.15;611278;232;68686;-66
2023/10/26 03:30:03;;;;;;;;;;;;;;;20.97;56.92;96022.41;611276;232;65538;-66
2023/10/26 03:32:30;;;;;;;;;;;;;;;20.97;56.78;96025.09;611331;232;68951;-66
2023/10/26 03:34:59;;;;;;;;;;;;;;;20.97;56.27;96016.28;611305;232;66133;-66
2023/10/26 03:37:27;;;;;;;;;;;;;;;20.98;56.12;96018.67;611270;231;64761;-66
2023/10/26 03:39:56;;;;;;;;;;;;;;;20.98;55.99;96015.19;611265;232;69269;-66
2023/10/26 03:42:24;;;;;;;;;;;;;;;20.98;56.17;96013.34;611255;232;66762;-68
2023/10/26 03:44:52;;;;;;;;;;;;;;;20.98;56.17;96007.99;611324;232;65121;-68
2023/10/26 03:47:19;;;;;;;;;;;;;;;20.98;56.27;96012.52;611285;232;68716;-68
2023/10/26 03:49:51;;;;;;;;;;;;;;;20.98;56.58;96017.86;611259;232;69552;-66
2023/10/26 03:52:16;;;;;;;;;;;;;;;20.97;56.70;96022.41;611152;232;64706;-66
2023/10/26 03:54:43;;;;;;;;;;;;;;;20.98;56.65;96025.88;611261;232;68669;-67
2023/10/26 03:57:11;;;;;;;;;;;;;;;20.97;56.45;96011.73;611327;232;66350;-66
2023/10/26 03:59:39;;;;;;;;;;;;;;;20.97;56.20;96013.61;611323;232;64964;-66
2023/10/26 04:02:07;;;;;;;;;;;;;;;20.97;56.10;96019.74;611209;232;69060;-66
2023/10/26 04:04:34;;;;;;;;;;;;;;;20.98;56.42;96023.20;611273;232;68480;-67
2023/10/26 04:07:01;;;;;;;;;;;;;;;20.96;56.34;96018.17;611248;232;64512;-67
2023/10/26 04:09:29;;;;;;;;;;;;;;;20.97;56.40;96010.95;611306;232;66655;-67
2023/10/26 04:11:57;;;;;;;;;;;;;;;20.97;56.34;96011.73;611277;232;66567;-67
2023/10/26 04:14:24;;;;;;;;;;;;;;;20.96;56.17;96015.50;611266;232;64381;-66
2023/10/26 04:16:51;;;;;;;;;;;;;;;20.97;56.24;96018.95;611294;232;68525;-66
2023/10/26 04:19:19;;;;;;;;;;;;;;;20.97;56.06;96021.63;611241;232;66451;-67
2023/10/26 04:21:46;;;;;;;;;;;;;;;20.96;55.83;96020.84;611299;232;62442;-67
2023/10/26 04:24:14;;;;;;;;;;;;;;;20.97;55.72;96017.08;611356;232;68644;-67
2023/10/26 04:26:42;;;;;;;;;;;;;;;20.97;55.66;96017.08;611269;232;68647;-67
2023/10/26 04:29:10;;;;;;;;;;;;;;;20.97;55.66;95992.25;611262;232;62903;-67
2023/10/26 04:31:38;;;;;;;;;;;;;;;20.97;55.75;96017.08;611244;232;68745;-67
2023/10/26 04:34:05;;;;;;;;;;;;;;;20.97;56.36;96014.41;611253;232;66743;-67
2023/10/26 04:36:33;;;;;;;;;;;;;;;20.96;56.37;96015.50;611340;232;62448;-67
2023/10/26 04:39:00;;;;;;;;;;;;;;;20.96;56.26;96015.50;611312;232;68766;-66
2023/10/26 04:41:28;;;;;;;;;;;;;;;20.96;56.34;96014.72;611276;232;68539;-66
2023/10/26 04:43:56;;;;;;;;;;;;;;;20.95;56.12;96008.59;611295;232;62450;-67
2023/10/26 04:46:23;;;;;;;;;;;;;;;20.95;56.01;96008.59;611307;232;66394;-66
2023/10/26 04:48:51;;;;;;;;;;;;;;;20.97;56.24;96016.28;611331;232;65958;-66
2023/10/26 04:51:18;;;;;;;;;;;;;;;20.95;56.28;96011.25;611331;232;64643;-66
2023/10/26 04:53:46;;;;;;;;;;;;;;;20.94;56.36;96006.98;611321;232;68462;-67
2023/10/26 04:56:13;;;;;;;;;;;;;;;20.95;56.83;96013.92;611303;232;68733;-67
2023/10/26 04:58:43;;;;;;;;;;;;;;;20.95;57.06;96011.25;611326;232;62540;-68
2023/10/26 05:01:11;;;;;;;;;;;;;;;20.96;57.19;96022.73;611276;232;68151;-68
2023/10/26 05:03:38;;;;;;;;;;;;;;;20.94;57.05;96024.89;611313;232;68553;-68
2023/10/26 05:06:06;;;;;;;;;;;;;;;20.94;56.71;96023.01;611320;232;65572;-69
2023/10/26 05:08:33;;;;;;;;;;;;;;;20.93;56.74;96032.11;611316;232;68325;-68
2023/10/26 05:11:01;;;;;;;;;;;;;;;20.94;56.23;96031.02;611300;232;68684;-68
2023/10/26 05:13:29;;;;;;;;;;;;;;;20.94;56.39;96035.58;611316;232;64723;-69
2023/10/26 05:15:56;;;;;;;;;;;;;;;20.94;56.20;96031.02;611298;232;66332;-69
2023/10/26 05:18:24;;;;;;;;;;;;;;;20.94;56.25;96027.56;611286;232;67373;-68
2023/10/26 05:20:51;;;;;;;;;;;;;;;20.94;56.18;96033.69;611287;232;64681;-69
2023/10/26 05:23:19;;;;;;;;;;;;;;;20.94;56.13;96044.38;611286;232;68984;-69
2023/10/26 05:25:48;;;;;;;;;;;;;;;20.94;56.27;96038.24;611336;232;68806;-69
2023/10/26 05:28:16;;;;;;;;;;;;;;;20.94;56.42;96047.05;611269;232;64911;-69
2023/10/26 05:30:43;;;;;;;;;;;;;;;20.94;57.42;96040.91;611267;232;68741;-68
2023/10/26 05:33:11;;;;;;;;;;;;;;;20.93;57.50;96037.45;611284;232;68883;-68
2023/10/26 05:35:39;;;;;;;;;;;;;;;20.94;57.32;96030.23;611307;232;62782;-68
2023/10/26 05:38:06;;;;;;;;;;;;;;;20.92;57.34;96024.39;611306;232;66336;-69
2023/10/26 05:40:34;;;;;;;;;;;;;;;20.92;56.40;96029.73;611314;232;68547;-69
2023/10/26 05:43:01;;;;;;;;;;;;;;;20.92;56.41;96035.86;611268;232;64650;-68
2023/10/26 05:45:33;;;;;;;;;;;;;;;20.93;56.92;96047.36;611283;232;68901;-68
2023/10/26 05:47:58;;;;;;;;;;;;;;;20.92;56.73;96051.88;611185;232;68427;-68
2023/10/26 05:50:25;;;;;;;;;;;;;;;20.92;56.63;96051.88;611314;232;64684;-69
2023/10/26 05:52:53;;;;;;;;;;;;;;;20.92;56.81;96041.20;611354;232;68917;-68
2023/10/26 05:55:23;;;;;;;;;;;;;;;20.91;57.21;96044.97;611239;232;68659;-69
2023/10/26 05:57:50;;;;;;;;;;;;;;;20.93;56.93;96042.02;611305;232;63449;-69
2023/10/26 06:00:17;;;;;;;;;;;;;;;20.92;56.33;96054.55;611325;232;66432;-69
2023/10/26 06:02:45;;;;;;;;;;;;;;;20.92;56.38;96051.88;611253;232;65897;-69
2023/10/26 06:05:12;;;;;;;;;;;;;;;20.92;56.22;96062.56;611307;232;62583;-68
2023/10/26 06:07:40;;;;;;;;;;;;;;;20.92;56.37;96067.12;611260;232;69413;-68
2023/10/26 06:10:09;;;;;;;;;;;;;;;20.93;57.18;96068.72;611285;232;68706;-68
2023/10/26 06:12:37;;;;;;;;;;;;;;;20.92;57.86;96067.91;611293;232;62517;-68
2023/10/26 06:15:05;;;;;;;;;;;;;;;20.92;57.86;96077.80;611315;232;66334;-68
2023/10/26 06:17:32;;;;;;;;;;;;;;;20.91;57.92;96074.34;611198;232;68461;-66
2023/10/26 06:20:00;;;;;;;;;;;;;;;20.91;57.92;96082.35;611307;232;62329;-66
2023/10/26 06:22:28;;;;;;;;;;;;;;;20.90;57.88;96083.45;611217;232;66294;-67
2023/10/26 06:24:55;;;;;;;;;;;;;;;20.88;55.75;96072.26;611222;232;66206;-65
2023/10/26 06:27:23;;;;;;;;;;;;;;;20.89;55.31;96084.52;611254;232;62342;-66
2023/10/26 06:29:52;;;;;;;;;;;;;;;20.91;59.21;96078.89;611317;232;69043;-67
2023/10/26 06:32:19;;;;;;;;;;;;;;;20.90;58.97;96080.78;611305;232;68348;-64
2023/10/26 06:34:47;;;;;;;;;;;;;;;20.90;59.99;96067.42;611248;232;64764;-67
2023/10/26 06:37:14;;;;;;;;;;;;;;;20.89;61.49;96060.48;611308;232;67695;-68
2023/10/26 06:39:42;;;;;;;;;;;;;;;20.89;63.19;96057.81;611246;232;66446;-68
2023/10/26 06:42:09;;;;;;;;;;;;;;;20.88;62.77;96066.13;611358;232;62387;-68
2023/10/26 06:44:39;;;;;;;;;;;;;;;20.88;62.52;96066.13;611171;232;66097;-67
2023/10/26 06:47:06;;;;;;;;;;;;;;;20.87;62.40;96069.87;611194;232;66258;-70
2023/10/26 06:49:33;;;;;;;;;;;;;;;20.89;61.32;96062.36;611305;232;64851;-69
2023/10/26 06:52:02;;;;;;;;;;;;;;;20.89;58.74;96073.84;611327;232;69224;-69
2023/10/26 06:54:29;;;;;;;;;;;;;;;20.91;57.72;96065.55;611258;232;68625;-69
2023/10/26 06:56:57;;;;;;;;;;;;;;;20.92;57.60;96067.91;611320;232;62421;-68
2023/10/26 06:59:25;;;;;;;;;;;;;;;20.93;55.72;96063.38;611285;232;69260;-66
2023/10/26 07:01:53;;;;;;;;;;;;;;;20.94;58.84;96062.28;611039;232;68478;-68
2023/10/26 07:04:20;;;;;;;;;;;;;;;20.94;59.18;96068.41;611301;232;62421;-69
2023/10/26 07:06:48;;;;;;;;;;;;;;;20.94;60.72;96064.95;611177;232;68600;-70
2023/10/26 07:09:16;;;;;;;;;;;;;;;20.94;59.99;96060.40;611317;232;68729;-69
2023/10/26 07:11:43;;;;;;;;;;;;;;;20.95;59.58;96067.34;611275;232;64526;-67
2023/10/26 07:14:11;;;;;;;;;;;;;;;20.94;59.75;96060.40;611237;232;68321;-68
2023/10/26 07:16:38;;;;;;;;;;;;;;;20.94;60.40;96065.73;611297;232;68051;-68
2023/10/26 07:19:05;;;;;;;;;;;;;;;20.94;61.05;96070.30;611292;232;64708;-68
2023/10/26 07:21:34;;;;;;;;;;;;;;;20.92;62.75;96070.58;611341;232;68362;-66
2023/10/26 07:24:02;;;;;;;;;;;;;;;20.95;62.33;96067.34;611209;232;66472;-66
2023/10/26 07:26:29;;;;;;;;;;;;;;;20.96;62.27;96060.91;611295;232;62376;-68
2023/10/26 07:28:57;;;;;;;;;;;;;;;20.96;57.08;96060.91;610304;232;68466;-68
2023/10/26 07:31:24;;;;;;;;;;;;;;;20.97;61.21;96049.12;611238;232;68284;-70
2023/10/26 07:33:52;;;;;;;;;;;;;;;20.95;58.15;96051.31;611318;232;62720;-69
2023/10/26 07:36:20;;;;;;;;;;;;;;;20.96;56.59;96060.91;608608;232;68336;-68
2023/10/26 07:38:47;;;;;;;;;;;;;;;20.98;59.46;96055.25;606178;234;68510;-69
2023/10/26 07:41:15;;;;;;;;;;;;;;;20.97;56.96;96049.12;606401;234;62349;-68
2023/10/26 07:43:42;;;;;;;;;;;;;;;20.97;59.25;96043.00;606455;234;68165;-69
2023/10/26 07:46:10;;;;;;;;;;;;;;;20.97;58.76;96051.80;606476;234;68587;-69
2023/10/26 07:48:38;;;;;;;;;;;;;;;20.97;59.44;96059.02;606451;234;64678;-68
2023/10/26 07:51:05;;;;;;;;;;;;;;;20.96;61.52;96050.22;606448;234;68657;-68
2023/10/26 07:53:33;;;;;;;;;;;;;;;20.96;62.77;96052.89;606494;234;68422;-68
2023/10/26 07:56:01;;;;;;;;;;;;;;;20.94;62.33;96047.05;606398;234;62730;-68
2023/10/26 07:58:30;;;;;;;;;;;;;;;20.95;62.11;96063.86;606497;234;68410;-68
2023/10/26 08:00:58;;;;;;;;;;;;;;;20.94;61.35;96063.07;606607;233;68475;-68
2023/10/26 08:03:27;;;;;;;;;;;;;;;20.95;62.70;96059.33;607253;233;62619;-69
2023/10/26 08:06:06;;;;;;;;;;;;;;;20.95;63.86;96051.31;607332;233;68321;-69
2023/10/26 08:08:28;;;;;;;;;;;;;;;20.94;64.10;96040.91;606756;233;66265;-69
2023/10/26 08:11:12;;;;;;;;;;;;;;;20.92;63.30;96041.20;607239;233;62645;-68
2023/10/26 08:13:40;;;;;;;;;;;;;;;20.93;62.68;96034.79;607303;233;66044;-68
2023/10/26 08:16:07;;;;;;;;;;;;;;;20.94;61.96;96032.91;607348;233;68331;-67
2023/10/26 08:18:36;;;;;;;;;;;;;;;20.94;63.03;96033.69;607262;233;64769;-67
2023/10/26 08:21:05;;;;;;;;;;;;;;;20.94;62.84;96035.58;607109;233;68576;-67
2023/10/26 08:23:33;;;;;;;;;;;;;;;20.92;60.10;96035.86;607210;233;66401;-69
2023/10/26 08:26:07;;;;;;;;;;;;;;;20.93;59.38;96034.79;602980;233;64767;-68
2023/10/26 08:28:36;;;;;;;;;;;;;;;20.95;61.50;96043.30;607225;233;66495;-69
2023/10/26 08:31:04;;;;;;;;;;;;;;;20.96;63.86;96034.20;607325;233;68233;-68
2023/10/26 08:33:33;;;;;;;;;;;;;;;20.95;57.45;96035.30;607270;233;64642;-68
2023/10/26 08:36:01;;;;;;;;;;;;;;;20.98;57.11;96024.02;607355;233;68505;-68
2023/10/26 08:38:28;;;;;;;;;;;;;;;20.99;56.61;96033.60;607226;233;68743;-68
2023/10/26 08:40:56;;;;;;;;;;;;;;;20.98;56.45;96031.22;607236;233;64765;-68
2023/10/26 08:43:24;;;;;;;;;;;;;;;20.98;57.55;96024.02;607304;233;68493;-68
2023/10/26 08:45:52;;;;;;;;;;;;;;;21.00;59.63;96029.84;607462;229;68278;-68
2023/10/26 08:48:19;;;;;;;;;;;;;;;21.00;60.27;96029.84;605159;229;63358;-67
2023/10/26 08:50:48;;;;;;;;;;;;;;;20.98;60.02;96034.70;606676;229;69844;-69
2023/10/26 08:53:16;;;;;;;;;;;;;;;20.98;60.37;96026.69;605218;232;65926;-69
2023/10/26 08:55:44;;;;;;;;;;;;;;;20.98;60.02;96024.02;603617;235;64660;-68
2023/10/26 08:58:11;;;;;;;;;;;;;;;20.99;58.37;96020.25;606590;229;68092;-68
2023/10/26 09:00:41;;;;;;;;;;;;;;;20.98;57.98;96016.00;604335;232;66062;-68
2023/10/26 09:03:08;;;;;;;;;;;;;;;21.00;57.84;96015.70;604148;235;64667;-67
2023/10/26 09:05:40;;;;;;;;;;;;;;;20.98;57.63;96010.66;604165;235;66060;-67
2023/10/26 09:08:22;;;;;;;;;;;;;;;21.00;57.09;96011.14;603761;234;66045;-67
2023/10/26 09:10:51;;;;;;;;;;;;;;;21.00;56.86;96005.01;607187;229;62498;-69
2023/10/26 09:13:25;;;;;;;;;;;;;;;21.01;57.92;96004.73;605046;232;68319;-69
2023/10/26 09:15:55;;;;;;;;;;;;;;;21.00;58.45;95995.11;604045;235;68241;-69
2023/10/26 09:18:23;;;;;;;;;;;;;;;21.00;62.74;95988.98;604206;235;64759;-70
2023/10/26 09:21:08;;;;;;;;;;;;;;;20.99;62.88;95993.54;605217;229;66363;-67
2023/10/26 09:23:42;;;;;;;;;;;;;;;20.99;62.81;96003.44;605906;229;68330;-67
2023/10/26 09:26:12;;;;;;;;;;;;;;;20.97;62.37;96003.72;607302;229;62350;-68
2023/10/26 09:28:55;;;;;;;;;;;;;;;20.98;62.75;96005.32;606345;229;68557;-69
2023/10/26 09:31:23;;;;;;;;;;;;;;;20.96;62.92;95999.47;605817;232;66389;-69
2023/10/26 09:33:51;;;;;;;;;;;;;;;20.96;62.54;95998.69;604149;235;63546;-68
2023/10/26 09:36:20;;;;;;;;;;;;;;;20.96;62.83;95993.34;604158;235;68101;-70
2023/10/26 09:38:48;;;;;;;;;;;;;;;20.96;62.98;95998.69;604141;235;68201;-69
2023/10/26 09:41:16;;;;;;;;;;;;;;;20.97;63.34;95989.58;604177;235;64623;-69
2023/10/26 09:43:43;;;;;;;;;;;;;;;20.95;63.31;95981.88;604136;235;68643;-69
2023/10/26 09:46:12;;;;;;;;;;;;;;;20.95;63.14;95973.86;604176;235;68120;-67
2023/10/26 09:48:40;;;;;;;;;;;;;;;20.96;63.38;95967.42;604204;235;64895;-68
2023/10/26 09:51:09;;;;;;;;;;;;;;;20.96;62.94;95972.77;604070;235;66415;-68
2023/10/26 09:53:39;;;;;;;;;;;;;;;20.96;63.02;95970.09;604151;235;68699;-68
2023/10/26 09:56:07;;;;;;;;;;;;;;;20.96;63.25;95975.44;604132;235;64554;-68
2023/10/26 09:58:38;;;;;;;;;;;;;;;20.96;63.41;95972.77;604153;235;68518;-68
2023/10/26 10:01:16;;;;;;;;;;;;;;;20.96;63.72;95970.09;603576;235;68364;-68
2023/10/26 10:03:44;;;;;;;;;;;;;;;20.95;63.88;95965.85;587915;240;64541;-68
2023/10/26 10:06:13;;;;;;;;;;;;;;;20.96;63.94;95972.77;602270;235;68305;-68
2023/10/26 10:08:58;;;;;;;;;;;;;;;20.96;63.31;95980.78;601476;235;68526;-68
2023/10/26 10:11:26;;;;;;;;;;;;;;;20.96;63.00;95978.11;602214;235;64997;-68
2023/10/26 10:13:54;;;;;;;;;;;;;;;20.97;63.01;95977.01;602271;235;68575;-69
2023/10/26 10:16:39;;;;;;;;;;;;;;;20.97;63.02;95970.88;602239;235;68854;-69
2023/10/26 10:19:18;;;;;;;;;;;;;;;20.97;62.76;95968.20;602175;235;64586;-69
2023/10/26 10:21:47;;;;;;;;;;;;;;;20.97;62.96;95974.34;602225;235;66889;-68
2023/10/26 10:24:33;;;;;;;;;;;;;;;20.98;63.22;95967.11;602257;235;69208;-68
2023/10/26 10:27:10;;;;;;;;;;;;;;;20.96;63.15;95962.08;602142;235;62459;-68
2023/10/26 10:29:37;;;;;;;;;;;;;;;20.99;59.17;95961.48;602290;235;68778;-69
2023/10/26 10:32:05;;;;;;;;;;;;;;;21.00;62.20;95941.69;602724;229;68733;-68
2023/10/26 10:34:37;;;;;;;;;;;;;;;20.98;62.67;95945.74;602236;235;64263;-68
2023/10/26 10:37:10;;;;;;;;;;;;;;;20.98;57.71;95937.73;601929;235;68881;-68
2023/10/26 10:39:37;;;;;;;;;;;;;;;21.01;57.17;95937.95;602060;235;68516;-67
2023/10/26 10:42:06;;;;;;;;;;;;;;;21.02;57.00;95939.52;602274;235;64737;-68
2023/10/26 10:44:36;;;;;;;;;;;;;;;21.03;56.91;95934.97;602204;235;69519;-68
2023/10/26 10:47:03;;;;;;;;;;;;;;;21.04;56.89;95926.67;601982;235;66727;-67
2023/10/26 10:49:31;;;;;;;;;;;;;;;21.05;56.92;95922.11;602214;235;62462;-67
2023/10/26 10:51:59;;;;;;;;;;;;;;;21.05;56.95;95922.89;602237;235;68471;-66
2023/10/26 10:54:26;;;;;;;;;;;;;;;21.05;57.04;95920.23;602207;235;68502;-69
2023/10/26 10:56:54;;;;;;;;;;;;;;;21.05;57.08;95914.89;602292;235;64828;-68
2023/10/26 10:59:23;;;;;;;;;;;;;;;21.06;57.10;95918.34;602196;235;66500;-68
2023/10/26 11:01:51;;;;;;;;;;;;;;;21.06;57.11;95919.16;605754;232;68594;-68
2023/10/26 11:04:20;;;;;;;;;;;;;;;21.06;57.12;95919.16;610941;232;62691;-68
2023/10/26 11:06:49;;;;;;;;;;;;;;;21.06;57.12;95916.48;610916;232;66567;-66
2023/10/26 11:09:23;;;;;;;;;;;;;;;21.07;57.11;95914.59;610839;232;69028;-68
2023/10/26 11:11:50;;;;;;;;;;;;;;;21.08;57.09;95910.05;610916;232;62671;-67
2023/10/26 11:14:20;;;;;;;;;;;;;;;21.06;57.09;95895.11;610921;232;66395;-66
2023/10/26 11:16:48;;;;;;;;;;;;;;;21.06;57.09;95897.78;610892;232;68692;-66
2023/10/26 11:19:16;;;;;;;;;;;;;;;21.06;57.28;95897.78;610898;232;62339;-65
2023/10/26 11:21:44;;;;;;;;;;;;;;;21.08;57.43;95891.34;610962;232;66550;-65
2023/10/26 11:24:11;;;;;;;;;;;;;;;21.06;57.35;95881.77;610853;232;68723;-66
2023/10/26 11:26:39;;;;;;;;;;;;;;;21.06;57.34;95876.42;610959;232;64634;-67
2023/10/26 11:29:08;;;;;;;;;;;;;;;21.06;57.28;95883.62;610864;232;65925;-70
2023/10/26 11:31:42;;;;;;;;;;;;;;;21.07;57.42;95882.55;610576;232;66533;-68
2023/10/26 11:34:10;;;;;;;;;;;;;;;21.07;57.73;95877.20;610917;232;64829;-67
2023/10/26 11:36:38;;;;;;;;;;;;;;;21.07;59.19;95871.86;610880;232;66485;-66
2023/10/26 11:39:06;;;;;;;;;;;;;;;21.07;58.98;95871.86;610818;232;66746;-66
2023/10/26 11:41:33;;;;;;;;;;;;;;;21.07;59.79;95871.86;610957;232;64612;-65
2023/10/26 11:44:01;;;;;;;;;;;;;;;21.06;59.32;95859.58;610894;232;68642;-67
2023/10/26 11:46:31;;;;;;;;;;;;;;;21.06;59.50;95848.89;610905;232;66324;-66
2023/10/26 11:48:58;;;;;;;;;;;;;;;21.06;59.08;95840.88;610920;232;62480;-67
2023/10/26 11:51:27;;;;;;;;;;;;;;;21.06;58.14;95841.69;610864;232;68619;-67
2023/10/26 11:53:56;;;;;;;;;;;;;;;21.07;57.52;95842.48;610922;232;68857;-67
2023/10/26 11:56:23;;;;;;;;;;;;;;;21.07;58.03;95839.80;610970;232;64589;-68
2023/10/26 11:58:51;;;;;;;;;;;;;;;21.07;57.59;95837.13;610881;232;68799;-68
2023/10/26 12:01:18;;;;;;;;;;;;;;;21.06;57.60;95832.86;610186;232;68568;-68
2023/10/26 12:03:47;;;;;;;;;;;;;;;21.08;57.70;95829.91;608964;233;64553;-67
2023/10/26 12:06:14;;;;;;;;;;;;;;;21.07;57.50;95829.13;608895;233;68929;-67
2023/10/26 12:08:42;;;;;;;;;;;;;;;21.09;57.29;95840.30;609010;233;68542;-66
2023/10/26 12:11:11;;;;;;;;;;;;;;;21.09;57.25;95836.81;608947;233;64590;-67
2023/10/26 12:13:38;;;;;;;;;;;;;;;21.08;57.18;95829.91;608954;233;66455;-67
2023/10/26 12:16:06;;;;;;;;;;;;;;;21.09;57.32;95823.46;609027;233;66229;-67
2023/10/26 12:18:34;;;;;;;;;;;;;;;21.09;57.68;95813.59;608978;233;64718;-67
2023/10/26 12:21:02;;;;;;;;;;;;;;;21.08;57.52;95806.65;608923;233;66779;-67
2023/10/26 12:23:29;;;;;;;;;;;;;;;21.09;57.26;95804.77;608944;233;66749;-67
2023/10/26 12:25:57;;;;;;;;;;;;;;;21.08;57.30;95808.53;608975;233;64907;-67
2023/10/26 12:28:24;;;;;;;;;;;;;;;21.09;57.15;95810.92;608827;233;68764;-67
2023/10/26 12:30:53;;;;;;;;;;;;;;;21.09;57.34;95816.27;608905;233;66336;-67
2023/10/26 12:33:20;;;;;;;;;;;;;;;21.09;57.43;95818.12;608877;233;65453;-67
2023/10/26 12:35:48;;;;;;;;;;;;;;;21.09;57.93;95812.77;608936;233;66622;-67
2023/10/26 12:38:19;;;;;;;;;;;;;;;21.10;58.65;95801.02;608897;233;68540;-67
2023/10/26 12:40:45;;;;;;;;;;;;;;;21.09;58.30;95794.08;608899;232;64653;-67
2023/10/26 12:43:13;;;;;;;;;;;;;;;21.09;57.59;95788.73;608938;233;68582;-68
2023/10/26 12:45:40;;;;;;;;;;;;;;;21.08;57.26;95793.30;608873;233;66331;-67
2023/10/26 12:48:08;;;;;;;;;;;;;;;21.09;57.17;95796.75;608915;233;64917;-67
2023/10/26 12:50:35;;;;;;;;;;;;;;;21.09;56.97;95788.73;608978;233;69015;-67
2023/10/26 12:53:03;;;;;;;;;;;;;;;21.10;56.83;95787.66;608925;233;66474;-68